createdAt,value
2022-08-29T00:01:12.534Z,99.90
2022-08-29T00:03:40.922Z,99.90
2022-08-29T00:06:08.158Z,99.90
2022-08-29T00:08:35.152Z,99.90
2022-08-29T00:11:02.429Z,99.90
2022-08-29T00:13:29.739Z,99.90
2022-08-29T00:15:56.740Z,99.90
2022-08-29T00:18:23.843Z,99.90
2022-08-29T00:20:51.090Z,99.90
2022-08-29T00:23:18.255Z,99.90
2022-08-29T00:25:45.490Z,99.90
2022-08-29T00:28:12.800Z,99.90
2022-08-29T00:30:40.087Z,99.90
2022-08-29T00:33:07.714Z,99.90
2022-08-29T00:35:37.316Z,99.90
2022-08-29T00:38:06.344Z,99.90
2022-08-29T00:40:38.495Z,99.90
2022-08-29T00:43:06.536Z,99.90
2022-08-29T00:45:34.535Z,99.90
2022-08-29T00:48:10.472Z,99.90
2022-08-29T00:50:55.078Z,99.90
2022-08-29T00:53:31.839Z,99.90
2022-08-29T00:55:59.924Z,99.90
2022-08-29T00:58:32.305Z,99.90
2022-08-29T01:00:59.781Z,99.90
2022-08-29T01:03:27.657Z,99.90
2022-08-29T01:05:54.840Z,99.90
2022-08-29T01:08:21.834Z,99.90
2022-08-29T01:11:07.328Z,99.90
2022-08-29T01:13:39.438Z,99.90
2022-08-29T01:16:08.393Z,99.90
2022-08-29T01:18:37.794Z,99.90
2022-08-29T01:21:22.094Z,99.90
2022-08-29T01:23:53.667Z,99.90
2022-08-29T01:26:22.414Z,99.90
2022-08-29T01:28:52.095Z,99.90
2022-08-29T01:31:42.186Z,99.90
2022-08-29T01:34:12.210Z,99.90
2022-08-29T01:36:53.595Z,99.90
2022-08-29T01:39:23.098Z,99.90
2022-08-29T01:41:50.421Z,99.90
2022-08-29T01:44:20.367Z,99.90
2022-08-29T01:46:54.009Z,99.90
2022-08-29T01:49:22.161Z,99.90
2022-08-29T01:51:49.535Z,99.90
2022-08-29T01:54:17.613Z,99.90
2022-08-29T01:56:48.409Z,99.90
2022-08-29T01:59:17.654Z,99.90
2022-08-29T02:01:50.550Z,99.90
2022-08-29T02:04:17.960Z,99.90
2022-08-29T02:06:45.763Z,99.90
2022-08-29T02:09:12.827Z,99.90
2022-08-29T02:11:40.046Z,99.90
2022-08-29T02:14:09.788Z,99.90
2022-08-29T02:16:46.178Z,99.90
2022-08-29T02:19:13.295Z,99.90
2022-08-29T02:21:41.212Z,99.90
2022-08-29T02:24:24.428Z,99.90
2022-08-29T02:26:52.604Z,99.90
2022-08-29T02:29:19.522Z,99.90
2022-08-29T02:31:46.633Z,99.90
2022-08-29T02:34:13.975Z,99.90
2022-08-29T02:36:41.555Z,99.90
2022-08-29T02:39:09.902Z,99.90
2022-08-29T02:41:38.010Z,99.90
2022-08-29T02:44:05.574Z,99.90
2022-08-29T02:46:32.644Z,99.90
2022-08-29T02:49:00.954Z,99.90
2022-08-29T02:51:30.955Z,99.90
2022-08-29T02:53:59.189Z,99.90
2022-08-29T02:56:26.495Z,99.90
2022-08-29T02:58:53.428Z,99.90
2022-08-29T03:01:22.672Z,99.90
2022-08-29T03:03:52.943Z,99.90
2022-08-29T03:06:20.791Z,99.90
2022-08-29T03:08:47.813Z,99.90
2022-08-29T03:11:16.073Z,99.90
2022-08-29T03:13:44.469Z,99.90
2022-08-29T03:16:12.014Z,99.90
2022-08-29T03:18:39.096Z,99.90
2022-08-29T03:21:13.639Z,99.90
2022-08-29T03:23:40.551Z,99.90
2022-08-29T03:26:07.920Z,99.90
2022-08-29T03:28:34.881Z,99.90
2022-08-29T03:31:01.866Z,99.90
2022-08-29T03:33:28.917Z,99.90
2022-08-29T03:35:55.917Z,99.90
2022-08-29T03:38:22.959Z,99.90
2022-08-29T03:40:49.939Z,99.90
2022-08-29T03:43:16.977Z,99.90
2022-08-29T03:45:45.269Z,99.90
2022-08-29T03:48:12.223Z,99.90
2022-08-29T03:50:39.201Z,99.90
2022-08-29T03:53:06.172Z,99.90
2022-08-29T03:55:33.103Z,99.90
2022-08-29T03:58:00.142Z,99.90
2022-08-29T04:00:27.169Z,99.90
2022-08-29T04:02:55.618Z,99.90
2022-08-29T04:05:22.975Z,99.90
2022-08-29T04:07:53.108Z,99.90
2022-08-29T04:10:31.845Z,99.90
2022-08-29T04:12:58.877Z,99.90
2022-08-29T04:15:28.140Z,99.90
2022-08-29T04:17:57.791Z,99.90
2022-08-29T04:20:32.186Z,99.90
2022-08-29T04:23:00.269Z,99.90
2022-08-29T04:25:33.909Z,99.90
2022-08-29T04:28:09.988Z,99.90
2022-08-29T04:30:38.294Z,99.90
2022-08-29T04:33:05.351Z,99.90
2022-08-29T04:35:32.433Z,99.90
2022-08-29T04:37:59.399Z,99.90
2022-08-29T04:40:26.404Z,99.90
2022-08-29T04:42:53.509Z,99.90
2022-08-29T04:45:22.407Z,99.90
2022-08-29T04:47:49.603Z,99.90
2022-08-29T04:50:19.317Z,99.90
2022-08-29T04:52:47.170Z,99.90
2022-08-29T04:55:19.547Z,99.90
2022-08-29T04:57:50.451Z,99.90
2022-08-29T05:00:22.229Z,99.90
2022-08-29T05:02:49.283Z,99.90
2022-08-29T05:05:18.031Z,99.90
2022-08-29T05:07:46.157Z,99.90
2022-08-29T05:10:17.880Z,99.90
2022-08-29T05:12:45.287Z,99.90
2022-08-29T05:15:14.127Z,99.90
2022-08-29T05:17:41.828Z,99.90
2022-08-29T05:20:10.022Z,99.90
2022-08-29T05:22:38.802Z,99.90
2022-08-29T05:25:06.363Z,99.90
2022-08-29T05:27:33.812Z,99.90
2022-08-29T05:30:01.813Z,99.90
2022-08-29T05:32:28.780Z,99.90
2022-08-29T05:34:56.223Z,99.90
2022-08-29T05:37:23.675Z,99.90
2022-08-29T05:39:51.152Z,99.90
2022-08-29T05:42:22.192Z,99.90
2022-08-29T05:44:49.839Z,99.90
2022-08-29T05:47:18.110Z,99.90
2022-08-29T05:49:46.809Z,99.90
2022-08-29T05:52:17.225Z,99.90
2022-08-29T05:54:45.179Z,99.90
2022-08-29T05:57:18.982Z,99.90
2022-08-29T05:59:47.605Z,99.90
2022-08-29T06:02:15.157Z,99.90
2022-08-29T06:04:42.232Z,99.90
2022-08-29T06:07:10.030Z,99.90
2022-08-29T06:09:38.757Z,99.90
2022-08-29T06:12:08.594Z,99.90
2022-08-29T06:14:35.895Z,99.90
2022-08-29T06:17:05.401Z,99.90
2022-08-29T06:19:35.188Z,99.90
2022-08-29T06:22:03.571Z,99.90
2022-08-29T06:24:38.791Z,99.90
2022-08-29T06:27:08.391Z,99.90
2022-08-29T06:29:42.937Z,99.90
2022-08-29T06:32:11.206Z,99.90
2022-08-29T06:34:38.150Z,99.90
2022-08-29T06:37:05.138Z,99.90
2022-08-29T06:39:32.067Z,99.90
2022-08-29T06:41:58.988Z,99.90
2022-08-29T06:44:26.721Z,99.90
2022-08-29T06:46:58.458Z,99.90
2022-08-29T06:49:26.208Z,99.90
2022-08-29T06:51:57.633Z,99.90
2022-08-29T06:54:28.049Z,99.90
2022-08-29T06:56:57.178Z,99.90
2022-08-29T06:59:27.235Z,99.90
2022-08-29T07:01:57.274Z,99.90
2022-08-29T07:04:26.614Z,99.90
2022-08-29T07:06:54.214Z,99.90
2022-08-29T07:09:21.339Z,99.90
2022-08-29T07:11:48.298Z,99.90
2022-08-29T07:14:15.354Z,99.90
2022-08-29T07:16:43.060Z,99.90
2022-08-29T07:19:19.887Z,99.90
2022-08-29T07:21:49.622Z,99.90
2022-08-29T07:24:16.619Z,99.90
2022-08-29T07:26:44.862Z,99.90
2022-08-29T07:29:16.995Z,99.90
2022-08-29T07:31:45.265Z,99.90
2022-08-29T07:34:12.916Z,99.90
2022-08-29T07:36:40.778Z,99.90
2022-08-29T07:39:16.470Z,99.90
2022-08-29T07:41:44.794Z,99.90
2022-08-29T07:44:14.126Z,99.90
2022-08-29T07:46:42.031Z,99.90
2022-08-29T07:49:09.939Z,99.90
2022-08-29T07:51:36.879Z,99.90
2022-08-29T07:54:04.876Z,99.90
2022-08-29T07:56:37.925Z,99.90
2022-08-29T07:59:07.305Z,99.90
2022-08-29T08:01:35.794Z,99.90
2022-08-29T08:04:03.375Z,99.90
2022-08-29T08:06:30.927Z,99.90
2022-08-29T08:08:58.095Z,99.90
2022-08-29T08:11:27.053Z,99.90
2022-08-29T08:13:55.836Z,99.90
2022-08-29T08:16:25.227Z,99.90
2022-08-29T08:18:55.320Z,99.90
2022-08-29T08:21:23.427Z,99.90
2022-08-29T08:23:50.916Z,99.90
2022-08-29T08:26:18.237Z,99.90
2022-08-29T08:28:45.703Z,99.90
2022-08-29T08:31:15.228Z,99.90
2022-08-29T08:33:44.390Z,99.90
2022-08-29T08:36:20.882Z,99.90
2022-08-29T08:38:49.502Z,99.90
2022-08-29T08:41:26.447Z,99.90
2022-08-29T08:43:57.765Z,99.90
2022-08-29T08:46:36.509Z,99.90
2022-08-29T08:49:09.079Z,99.90
2022-08-29T08:51:39.679Z,99.90
2022-08-29T08:54:14.958Z,99.90
2022-08-29T08:56:49.323Z,99.90
2022-08-29T08:59:31.668Z,99.90
2022-08-29T09:02:07.201Z,99.90
2022-08-29T09:04:49.727Z,99.90
2022-08-29T09:07:39.680Z,99.90
2022-08-29T09:10:48.827Z,99.90
2022-08-29T09:13:37.695Z,99.90
2022-08-29T09:16:25.434Z,99.90
2022-08-29T09:18:56.972Z,99.80
2022-08-29T09:21:40.704Z,97.00
2022-08-29T09:24:15.528Z,97.70
2022-08-29T09:26:42.439Z,98.80
2022-08-29T09:29:12.269Z,98.30
2022-08-29T09:31:41.228Z,99.10
2022-08-29T09:34:13.457Z,99.90
2022-08-29T09:36:52.476Z,99.90
2022-08-29T09:39:31.423Z,99.90
2022-08-29T09:42:13.922Z,99.90
2022-08-29T09:44:51.165Z,99.90
2022-08-29T09:47:33.056Z,99.90
2022-08-29T09:50:18.947Z,99.90
2022-08-29T09:52:56.349Z,99.00
2022-08-29T09:55:42.590Z,96.00
2022-08-29T09:58:19.242Z,92.60
2022-08-29T10:01:09.871Z,92.10
2022-08-29T10:03:44.503Z,92.20
2022-08-29T10:06:24.027Z,90.60
2022-08-29T10:09:12.441Z,92.20
2022-08-29T10:11:56.194Z,94.60
2022-08-29T10:14:32.772Z,97.30
2022-08-29T10:17:29.206Z,99.40
2022-08-29T10:19:56.217Z,99.90
2022-08-29T10:22:32.551Z,99.30
2022-08-29T10:25:17.240Z,97.70
2022-08-29T10:28:00.526Z,96.50
2022-08-29T10:30:34.351Z,95.40
2022-08-29T10:33:42.181Z,93.10
2022-08-29T10:36:33.955Z,91.70
2022-08-29T10:39:19.232Z,94.50
2022-08-29T10:42:04.710Z,98.60
2022-08-29T10:44:50.602Z,99.30
2022-08-29T10:47:39.642Z,98.90
2022-08-29T10:50:34.102Z,97.60
2022-08-29T10:53:17.388Z,98.20
2022-08-29T10:55:56.005Z,95.90
2022-08-29T10:58:22.952Z,94.50
2022-08-29T11:01:09.560Z,94.60
2022-08-29T11:04:17.736Z,92.20
2022-08-29T11:07:03.482Z,90.40
2022-08-29T11:09:37.665Z,87.20
2022-08-29T11:12:33.431Z,85.70
2022-08-29T11:15:10.011Z,81.50
2022-08-29T11:17:41.260Z,77.20
2022-08-29T11:20:21.861Z,78.80
2022-08-29T11:23:03.152Z,80.50
2022-08-29T11:25:33.167Z,78.50
2022-08-29T11:28:35.348Z,84.10
2022-08-29T11:31:12.697Z,88.80
2022-08-29T11:33:55.814Z,91.20
2022-08-29T11:36:26.275Z,92.20
2022-08-29T11:39:07.869Z,92.00
2022-08-29T11:41:41.097Z,91.80
2022-08-29T11:44:17.534Z,89.20
2022-08-29T11:46:48.976Z,81.50
2022-08-29T11:49:37.102Z,80.10
2022-08-29T11:52:11.329Z,79.70
2022-08-29T11:54:40.260Z,86.70
2022-08-29T11:57:10.420Z,96.30
2022-08-29T11:59:49.608Z,99.60
2022-08-29T12:02:29.190Z,99.90
2022-08-29T12:04:56.117Z,99.90
2022-08-29T12:08:14.341Z,99.90
2022-08-29T12:10:55.980Z,99.90
2022-08-29T12:13:48.708Z,99.90
2022-08-29T12:16:19.592Z,99.90
2022-08-29T12:18:52.295Z,98.20
2022-08-29T12:21:40.501Z,96.30
2022-08-29T12:24:29.043Z,95.50
2022-08-29T12:26:56.337Z,96.60
2022-08-29T12:29:44.927Z,97.70
2022-08-29T12:32:47.684Z,99.50
2022-08-29T12:35:17.696Z,98.20
2022-08-29T12:38:06.195Z,98.80
2022-08-29T12:41:04.028Z,97.50
2022-08-29T12:43:42.707Z,96.80
2022-08-29T12:46:33.342Z,97.60
2022-08-29T12:49:42.751Z,97.10
2022-08-29T12:52:28.761Z,97.00
2022-08-29T12:55:16.628Z,98.20
2022-08-29T12:57:45.730Z,97.60
2022-08-29T13:00:22.586Z,99.40
2022-08-29T13:03:15.219Z,99.40
2022-08-29T13:05:43.440Z,99.20
2022-08-29T13:08:16.666Z,98.10
2022-08-29T13:10:59.671Z,98.20
2022-08-29T13:13:27.433Z,97.50
2022-08-29T13:16:01.612Z,96.80
2022-08-29T13:18:30.225Z,96.00
2022-08-29T13:21:13.316Z,96.10
2022-08-29T13:23:47.736Z,95.80
2022-08-29T13:26:14.736Z,94.50
2022-08-29T13:29:07.735Z,94.30
2022-08-29T13:31:37.178Z,91.80
2022-08-29T13:34:09.425Z,91.10
2022-08-29T13:36:47.523Z,84.70
2022-08-29T13:39:24.989Z,87.00
2022-08-29T13:41:57.756Z,80.80
2022-08-29T13:44:48.994Z,82.40
2022-08-29T13:47:31.208Z,83.50
2022-08-29T13:50:02.699Z,81.50
2022-08-29T13:52:31.978Z,80.90
2022-08-29T13:55:02.805Z,79.10
2022-08-29T13:57:31.653Z,76.50
2022-08-29T13:59:59.304Z,76.50
2022-08-29T14:02:27.970Z,74.60
2022-08-29T14:04:55.195Z,73.50
2022-08-29T14:07:28.322Z,73.10
2022-08-29T14:09:56.103Z,72.20
2022-08-29T14:12:33.882Z,72.90
2022-08-29T14:15:06.751Z,74.00
2022-08-29T14:17:37.157Z,73.30
2022-08-29T14:20:07.113Z,74.40
2022-08-29T14:22:34.152Z,73.50
2022-08-29T14:25:01.727Z,72.60
2022-08-29T14:27:29.803Z,74.20
2022-08-29T14:29:56.765Z,77.30
2022-08-29T14:32:24.462Z,79.30
2022-08-29T14:34:54.179Z,80.60
2022-08-29T14:37:21.712Z,83.20
2022-08-29T14:39:49.888Z,81.80
2022-08-29T14:42:17.521Z,81.40
2022-08-29T14:44:44.829Z,81.60
2022-08-29T14:47:11.885Z,82.30
2022-08-29T14:49:39.211Z,79.80
2022-08-29T14:52:06.433Z,70.20
2022-08-29T14:54:33.638Z,62.00
2022-08-29T14:57:01.017Z,60.40
2022-08-29T14:59:28.163Z,58.70
2022-08-29T15:01:55.656Z,57.70
2022-08-29T15:04:36.882Z,59.30
2022-08-29T15:07:13.989Z,62.50
2022-08-29T15:09:43.944Z,64.60
2022-08-29T15:12:13.411Z,66.90
2022-08-29T15:14:41.545Z,68.50
2022-08-29T15:17:08.637Z,69.50
2022-08-29T15:22:24.756Z,74.80
2022-08-29T15:24:52.428Z,77.00
2022-08-29T15:27:26.858Z,80.20
2022-08-29T15:29:54.317Z,81.20
2022-08-29T15:32:21.469Z,80.50
2022-08-29T15:34:49.227Z,82.90
2022-08-29T15:37:17.009Z,82.80
2022-08-29T15:39:44.105Z,85.40
2022-08-29T15:42:17.126Z,89.00
2022-08-29T15:44:44.679Z,84.00
2022-08-29T15:47:12.572Z,83.80
2022-08-29T15:49:41.547Z,83.20
2022-08-29T15:52:08.511Z,83.70
2022-08-29T15:54:36.120Z,84.90
2022-08-29T15:57:03.666Z,83.50
2022-08-29T15:59:54.176Z,84.10
2022-08-29T16:02:18.107Z,83.60
2022-08-29T16:04:47.853Z,82.10
2022-08-29T16:07:16.929Z,83.20
2022-08-29T16:09:45.067Z,84.00
2022-08-29T16:12:12.423Z,82.40
2022-08-29T16:14:59.142Z,84.50
2022-08-29T16:17:29.806Z,90.60
2022-08-29T16:19:58.339Z,94.50
2022-08-29T16:22:27.802Z,97.40
2022-08-29T16:24:54.915Z,97.40
2022-08-29T16:27:24.240Z,98.50
2022-08-29T16:29:52.991Z,99.90
2022-08-29T16:32:20.994Z,99.90
2022-08-29T16:34:47.939Z,99.90
2022-08-29T16:37:15.117Z,99.90
2022-08-29T16:39:42.122Z,99.90
2022-08-29T16:42:12.172Z,99.90
2022-08-29T16:44:40.217Z,99.90
2022-08-29T16:47:07.268Z,99.90
2022-08-29T16:49:34.425Z,99.90
2022-08-29T16:52:01.465Z,99.90
2022-08-29T16:54:28.655Z,99.90
2022-08-29T16:56:57.121Z,99.90
2022-08-29T16:59:24.313Z,99.90
2022-08-29T17:01:53.566Z,99.90
2022-08-29T17:04:24.392Z,99.90
2022-08-29T17:06:52.457Z,99.90
2022-08-29T17:09:22.356Z,99.90
2022-08-29T17:11:50.760Z,99.90
2022-08-29T17:14:21.047Z,99.90
2022-08-29T17:16:51.144Z,99.90
2022-08-29T17:19:18.613Z,99.90
2022-08-29T17:21:46.311Z,99.90
2022-08-29T17:24:13.741Z,99.90
2022-08-29T17:26:44.691Z,99.90
2022-08-29T17:29:11.692Z,99.90
2022-08-29T17:31:39.141Z,99.90
2022-08-29T17:34:07.944Z,99.90
2022-08-29T17:36:40.559Z,99.90
2022-08-29T17:39:08.809Z,99.90
2022-08-29T17:41:37.631Z,99.90
2022-08-29T17:44:07.132Z,99.90
2022-08-29T17:46:35.249Z,99.90
2022-08-29T17:49:07.428Z,99.90
2022-08-29T17:51:35.348Z,99.90
2022-08-29T17:54:03.604Z,99.90
2022-08-29T17:56:44.324Z,99.90
2022-08-29T17:59:12.746Z,99.90
2022-08-29T18:01:39.749Z,99.90
2022-08-29T18:04:06.857Z,99.90
2022-08-29T18:06:33.796Z,99.90
2022-08-29T18:09:00.928Z,99.90
2022-08-29T18:11:28.261Z,99.90
2022-08-29T18:13:55.473Z,99.90
2022-08-29T18:16:22.658Z,99.90
2022-08-29T18:18:51.661Z,99.90
2022-08-29T18:21:18.990Z,99.90
2022-08-29T18:23:46.495Z,99.90
2022-08-29T18:26:14.718Z,99.90
2022-08-29T18:28:41.838Z,99.90
2022-08-29T18:31:09.508Z,99.90
2022-08-29T18:33:59.133Z,99.90
2022-08-29T18:36:26.710Z,99.90
2022-08-29T18:38:53.947Z,99.90
2022-08-29T18:41:21.085Z,99.90
2022-08-29T18:43:47.984Z,99.90
2022-08-29T18:46:15.081Z,99.90
2022-08-29T18:48:44.909Z,99.90
2022-08-29T18:51:12.388Z,99.90
2022-08-29T18:53:39.906Z,99.90
2022-08-29T18:56:07.018Z,99.90
2022-08-29T18:58:35.316Z,99.90
2022-08-29T19:01:27.618Z,99.90
2022-08-29T19:04:05.298Z,99.90
2022-08-29T19:06:32.877Z,99.90
2022-08-29T19:09:00.184Z,99.90
2022-08-29T19:11:28.386Z,99.90
2022-08-29T19:13:55.409Z,99.90
2022-08-29T19:16:24.064Z,99.90
2022-08-29T19:18:51.653Z,99.90
2022-08-29T19:21:18.862Z,99.90
2022-08-29T19:23:52.158Z,99.90
2022-08-29T19:26:29.453Z,99.90
2022-08-29T19:28:59.157Z,99.90
2022-08-29T19:31:39.050Z,99.90
2022-08-29T19:34:06.424Z,99.90
2022-08-29T19:36:34.197Z,99.90
2022-08-29T19:39:02.009Z,99.90
2022-08-29T19:41:29.776Z,99.90
2022-08-29T19:43:56.823Z,99.90
2022-08-29T19:46:27.941Z,99.90
2022-08-29T19:48:55.464Z,99.90
2022-08-29T19:51:24.704Z,99.90
2022-08-29T19:53:52.306Z,99.90
2022-08-29T19:56:19.286Z,99.90
2022-08-29T19:58:46.345Z,99.90
2022-08-29T20:01:17.379Z,99.90
2022-08-29T20:03:46.003Z,99.90
2022-08-29T20:06:16.298Z,99.90
2022-08-29T20:08:48.202Z,99.90
2022-08-29T20:11:24.659Z,99.90
2022-08-29T20:13:53.759Z,99.90
2022-08-29T20:16:24.387Z,99.90
2022-08-29T20:18:52.813Z,99.90
2022-08-29T20:21:23.606Z,99.90
2022-08-29T20:23:57.821Z,99.90
2022-08-29T20:26:28.881Z,99.90
2022-08-29T20:28:59.019Z,99.90
2022-08-29T20:31:27.103Z,99.90
2022-08-29T20:33:54.270Z,99.90
2022-08-29T20:36:42.284Z,99.90
2022-08-29T20:39:13.304Z,99.90
2022-08-29T20:41:40.302Z,99.90
2022-08-29T20:44:07.841Z,99.90
2022-08-29T20:46:40.544Z,99.90
2022-08-29T20:49:09.004Z,99.90
2022-08-29T20:51:37.548Z,99.90
2022-08-29T20:54:05.432Z,99.90
2022-08-29T20:56:32.946Z,99.90
2022-08-29T20:59:00.348Z,99.90
2022-08-29T21:01:27.492Z,99.90
2022-08-29T21:04:13.261Z,99.90
2022-08-29T21:06:40.448Z,99.90
2022-08-29T21:09:08.288Z,99.90
2022-08-29T21:11:35.338Z,99.90
2022-08-29T21:14:02.328Z,99.90
2022-08-29T21:16:29.669Z,99.90
2022-08-29T21:18:56.737Z,99.90
2022-08-29T21:21:25.112Z,99.90
2022-08-29T21:23:52.528Z,99.90
2022-08-29T21:26:19.584Z,99.90
2022-08-29T21:28:49.669Z,99.90
2022-08-29T21:31:17.162Z,99.90
2022-08-29T21:33:46.365Z,99.90
2022-08-29T21:36:24.509Z,99.90
2022-08-29T21:39:01.891Z,99.90
2022-08-29T21:41:31.127Z,99.90
2022-08-29T21:43:58.226Z,99.90
2022-08-29T21:46:31.092Z,99.90
2022-08-29T21:49:00.717Z,99.90
2022-08-29T21:51:29.596Z,99.90
2022-08-29T21:53:58.316Z,99.90
2022-08-29T21:56:27.813Z,99.90
2022-08-29T21:58:56.270Z,99.90
2022-08-29T22:01:27.273Z,99.90
2022-08-29T22:03:55.081Z,99.90
2022-08-29T22:06:22.339Z,99.90
2022-08-29T22:08:49.451Z,99.90
2022-08-29T22:11:24.053Z,99.90
2022-08-29T22:13:52.785Z,99.90
2022-08-29T22:16:30.151Z,99.90
2022-08-29T22:18:57.162Z,99.90
2022-08-29T22:21:24.851Z,99.90
2022-08-29T22:23:52.070Z,99.90
2022-08-29T22:26:19.121Z,99.90
2022-08-29T22:28:46.295Z,99.90
2022-08-29T22:31:13.972Z,99.90
2022-08-29T22:33:41.315Z,99.90
2022-08-29T22:36:10.299Z,99.90
2022-08-29T22:38:37.385Z,99.90
2022-08-29T22:41:08.181Z,99.90
2022-08-29T22:43:35.737Z,99.90
2022-08-29T22:46:02.877Z,99.90
2022-08-29T22:48:29.887Z,99.90
2022-08-29T22:50:58.476Z,99.90
2022-08-29T22:53:26.009Z,99.90
2022-08-29T22:55:52.965Z,99.90
2022-08-29T22:58:19.894Z,99.90
2022-08-29T23:00:46.891Z,99.90
2022-08-29T23:03:13.962Z,99.90
2022-08-29T23:05:41.096Z,99.90
2022-08-29T23:08:08.039Z,99.90
2022-08-29T23:10:35.033Z,99.90
2022-08-29T23:13:02.003Z,99.90
2022-08-29T23:15:28.950Z,99.90
2022-08-29T23:17:55.982Z,99.90
2022-08-29T23:20:23.878Z,99.90
2022-08-29T23:22:56.208Z,99.90
2022-08-29T23:25:24.482Z,99.90
2022-08-29T23:27:51.425Z,99.90
2022-08-29T23:30:18.438Z,99.90
2022-08-29T23:32:45.410Z,99.90
2022-08-29T23:35:12.638Z,99.90
2022-08-29T23:37:39.659Z,99.90
2022-08-29T23:40:07.422Z,99.90
2022-08-29T23:42:34.443Z,99.90
2022-08-29T23:45:01.362Z,99.90
2022-08-29T23:47:28.604Z,99.90
2022-08-29T23:49:55.544Z,99.90
2022-08-29T23:52:22.494Z,99.90
2022-08-29T23:54:49.618Z,99.90
2022-08-29T23:57:16.549Z,99.90
